Time;durP1;ratioP1;P1;durP2;ratioP2;P2;SDS_P1;SDS_P2;PMS_P1;PMS_P2;Temp;Humidity;BMP_temperature;BMP_pressure;BME280_temperature;BME280_humidity;BME280_pressure;Samples;Min_cycle;Max_cycle;Signal;HPM_P1;HPM_P2
2021/01/27 00:02:02;;;;;;;28.73;18.85;;;;;;;;;;5033447;28;20693;-62
2021/01/27 00:04:29;;;;;;;27.40;20.35;;;;;;;;;;5033720;28;20218;-62
2021/01/27 00:06:56;;;;;;;25.30;18.02;;;;;;;;;;5033955;28;20217;-60
2021/01/27 00:09:23;;;;;;;25.77;19.60;;;;;;;;;;5033930;28;20349;-60
2021/01/27 00:11:50;;;;;;;24.15;18.38;;;;;;;;;;5038437;28;20282;-62
2021/01/27 00:14:16;;;;;;;25.85;17.70;;;;;;;;;;5041977;28;20698;-62
2021/01/27 00:16:43;;;;;;;24.75;17.67;;;;;;;;;;5034577;28;20263;-61
2021/01/27 00:19:10;;;;;;;24.40;17.25;;;;;;;;;;5033387;28;20202;-61
2021/01/27 00:21:37;;;;;;;26.20;19.88;;;;;;;;;;5033063;28;20256;-61
2021/01/27 00:24:04;;;;;;;24.10;17.92;;;;;;;;;;5036578;28;20202;-61
2021/01/27 00:26:31;;;;;;;25.30;17.50;;;;;;;;;;5048038;28;20202;-60
2021/01/27 00:28:58;;;;;;;27.38;19.23;;;;;;;;;;5046262;28;20218;-61
2021/01/27 00:31:25;;;;;;;22.38;18.00;;;;;;;;;;5037651;28;20666;-61
2021/01/27 00:33:52;;;;;;;25.05;20.15;;;;;;;;;;5040644;28;20202;-62
2021/01/27 00:36:19;;;;;;;24.67;19.23;;;;;;;;;;5039640;28;20206;-61
2021/01/27 00:38:46;;;;;;;25.67;18.42;;;;;;;;;;5036998;28;20693;-62
2021/01/27 00:41:13;;;;;;;25.08;20.08;;;;;;;;;;5036899;28;20739;-62
2021/01/27 00:43:40;;;;;;;28.75;19.95;;;;;;;;;;5036839;28;20202;-61
2021/01/27 00:46:07;;;;;;;27.17;21.13;;;;;;;;;;5036577;28;20229;-62
2021/01/27 00:48:33;;;;;;;28.85;20.77;;;;;;;;;;5036796;28;20596;-62
2021/01/27 00:51:00;;;;;;;30.17;19.67;;;;;;;;;;5036766;28;20213;-61
2021/01/27 00:53:27;;;;;;;28.83;20.75;;;;;;;;;;5037067;28;20209;-62
2021/01/27 00:55:54;;;;;;;27.73;19.65;;;;;;;;;;5036829;28;20256;-62
2021/01/27 00:58:21;;;;;;;27.20;20.48;;;;;;;;;;5036630;28;20616;-61
2021/01/27 01:00:48;;;;;;;26.50;19.60;;;;;;;;;;5036880;28;20203;-61
2021/01/27 01:03:15;;;;;;;31.45;21.40;;;;;;;;;;5037676;28;20666;-61
2021/01/27 01:05:42;;;;;;;29.63;19.30;;;;;;;;;;5037701;28;20713;-62
2021/01/27 01:08:11;;;;;;;29.40;19.42;;;;;;;;;;5037096;28;20218;-61
2021/01/27 01:10:39;;;;;;;27.05;20.23;;;;;;;;;;5037651;28;20279;-62
2021/01/27 01:13:07;;;;;;;29.75;19.27;;;;;;;;;;5037915;28;20229;-61
2021/01/27 01:15:35;;;;;;;28.58;19.02;;;;;;;;;;5039679;28;20222;-61
2021/01/27 01:18:01;;;;;;;28.02;19.27;;;;;;;;;;5038090;28;20256;-61
2021/01/27 01:20:28;;;;;;;28.88;19.80;;;;;;;;;;5038034;28;20213;-61
2021/01/27 01:22:56;;;;;;;23.92;18.23;;;;;;;;;;5037155;28;20229;-62
2021/01/27 01:25:24;;;;;;;27.73;21.17;;;;;;;;;;5037332;28;20772;-61
2021/01/27 01:27:51;;;;;;;28.85;19.90;;;;;;;;;;5037570;28;20225;-61
2021/01/27 01:30:19;;;;;;;29.27;20.40;;;;;;;;;;5036435;28;20666;-61
2021/01/27 01:32:47;;;;;;;33.50;24.00;;;;;;;;;;5036743;28;20209;-61
2021/01/27 01:35:14;;;;;;;28.02;20.40;;;;;;;;;;5035556;28;20268;-61
2021/01/27 01:37:42;;;;;;;26.27;19.70;;;;;;;;;;5036676;28;20687;-62
2021/01/27 01:40:10;;;;;;;33.08;22.25;;;;;;;;;;5037197;28;20207;-61
2021/01/27 01:42:36;;;;;;;32.83;22.40;;;;;;;;;;5037409;28;20205;-61
2021/01/27 01:45:05;;;;;;;32.85;22.80;;;;;;;;;;5036920;28;20230;-61
2021/01/27 01:47:31;;;;;;;32.67;23.88;;;;;;;;;;5035905;28;20198;-61
2021/01/27 01:49:59;;;;;;;37.05;21.70;;;;;;;;;;5039394;28;20261;-61
2021/01/27 01:52:26;;;;;;;37.70;23.33;;;;;;;;;;5037512;28;20206;-61
2021/01/27 01:54:55;;;;;;;32.38;22.58;;;;;;;;;;5038047;28;20228;-62
2021/01/27 01:57:23;;;;;;;32.10;22.42;;;;;;;;;;5038756;28;20202;-62
2021/01/27 01:59:52;;;;;;;35.80;22.55;;;;;;;;;;5041604;28;20202;-62
2021/01/27 02:02:20;;;;;;;34.42;24.55;;;;;;;;;;5041110;28;20666;-61
2021/01/27 02:04:50;;;;;;;39.13;24.85;;;;;;;;;;5036369;28;20713;-61
2021/01/27 02:07:18;;;;;;;36.53;25.83;;;;;;;;;;5036832;28;20197;-60
2021/01/27 02:09:45;;;;;;;39.78;26.17;;;;;;;;;;5038083;28;20227;-61
2021/01/27 02:12:28;;;;;;;40.75;27.08;;;;;;;;;;5042359;28;20206;-62
2021/01/27 02:15:18;;;;;;;37.78;26.33;;;;;;;;;;5039810;28;20280;-61
2021/01/27 02:17:48;;;;;;;40.17;25.75;;;;;;;;;;5020910;28;20560;-62
2021/01/27 02:20:32;;;;;;;36.25;25.33;;;;;;;;;;5035435;28;20252;-61
2021/01/27 02:23:19;;;;;;;44.50;27.23;;;;;;;;;;5035448;28;20190;-61
2021/01/27 02:25:53;;;;;;;42.50;27.63;;;;;;;;;;5035020;28;20710;-62
2021/01/27 02:28:29;;;;;;;43.30;29.38;;;;;;;;;;5035119;28;20284;-62
2021/01/27 02:31:04;;;;;;;46.33;28.23;;;;;;;;;;5035413;28;20186;-60
2021/01/27 02:33:49;;;;;;;40.70;28.00;;;;;;;;;;5046749;28;20191;-61
2021/01/27 02:36:22;;;;;;;43.90;27.80;;;;;;;;;;5050164;28;20604;-61
2021/01/27 02:38:52;;;;;;;41.38;28.67;;;;;;;;;;5037578;28;20213;-60
2021/01/27 02:41:25;;;;;;;45.80;30.30;;;;;;;;;;5037287;28;20198;-61
2021/01/27 02:43:53;;;;;;;47.47;28.20;;;;;;;;;;5036176;28;20206;-61
2021/01/27 02:46:24;;;;;;;45.25;32.10;;;;;;;;;;5034477;28;20288;-61
2021/01/27 02:48:55;;;;;;;43.53;28.40;;;;;;;;;;5038218;28;20222;-62
2021/01/27 02:51:25;;;;;;;44.58;29.63;;;;;;;;;;5036026;28;20566;-61
2021/01/27 02:53:54;;;;;;;43.53;31.17;;;;;;;;;;5035788;28;20202;-62
2021/01/27 02:56:23;;;;;;;44.47;29.08;;;;;;;;;;5035049;28;20199;-61
2021/01/27 02:58:55;;;;;;;45.47;29.98;;;;;;;;;;5034823;28;20221;-61
2021/01/27 03:01:27;;;;;;;43.88;29.83;;;;;;;;;;5034365;28;20708;-61
2021/01/27 03:03:56;;;;;;;47.60;29.83;;;;;;;;;;5035446;28;20647;-63
2021/01/27 03:06:25;;;;;;;41.95;29.08;;;;;;;;;;5035653;28;20207;-61
2021/01/27 03:08:53;;;;;;;43.67;28.13;;;;;;;;;;5040741;28;20233;-62
2021/01/27 03:11:22;;;;;;;40.40;27.67;;;;;;;;;;5036842;28;20213;-61
2021/01/27 03:13:48;;;;;;;42.40;27.70;;;;;;;;;;5035525;28;20281;-61
2021/01/27 03:16:16;;;;;;;45.67;29.88;;;;;;;;;;5036128;28;20368;-61
2021/01/27 03:18:46;;;;;;;50.05;29.77;;;;;;;;;;5036599;28;20206;-61
2021/01/27 03:21:14;;;;;;;43.53;28.42;;;;;;;;;;5034641;28;20210;-61
2021/01/27 03:23:44;;;;;;;44.05;29.50;;;;;;;;;;5034524;28;20206;-61
2021/01/27 03:26:15;;;;;;;40.17;27.65;;;;;;;;;;5037730;28;20773;-61
2021/01/27 03:28:43;;;;;;;40.58;29.30;;;;;;;;;;5036554;28;20206;-62
2021/01/27 03:31:10;;;;;;;42.03;29.50;;;;;;;;;;5034423;28;20552;-61
2021/01/27 03:33:42;;;;;;;41.97;28.95;;;;;;;;;;5034299;28;20210;-61
2021/01/27 03:36:10;;;;;;;43.13;29.55;;;;;;;;;;5035803;28;20312;-61
2021/01/27 03:38:39;;;;;;;44.30;29.27;;;;;;;;;;5035685;28;20202;-61
2021/01/27 03:41:10;;;;;;;41.58;27.80;;;;;;;;;;5035491;28;20206;-62
2021/01/27 03:43:39;;;;;;;38.80;26.17;;;;;;;;;;5040510;28;20563;-62
2021/01/27 03:46:10;;;;;;;45.15;29.48;;;;;;;;;;5038407;28;20626;-61
2021/01/27 03:48:39;;;;;;;40.17;27.45;;;;;;;;;;5040237;28;20210;-61
2021/01/27 03:51:06;;;;;;;38.20;25.92;;;;;;;;;;5036945;28;20625;-61
2021/01/27 03:53:34;;;;;;;38.28;25.85;;;;;;;;;;5039144;28;20229;-61
2021/01/27 03:56:04;;;;;;;33.47;25.00;;;;;;;;;;5035314;28;20224;-61
2021/01/27 03:58:34;;;;;;;40.72;25.50;;;;;;;;;;5033265;28;20229;-62
2021/01/27 04:01:02;;;;;;;34.70;23.80;;;;;;;;;;5033460;28;20209;-62
2021/01/27 04:03:30;;;;;;;35.90;23.55;;;;;;;;;;5033677;28;20202;-61
2021/01/27 04:07:40;;;;;;;32.50;23.08;;;;;;;;;;5132510;27;20543;-61
2021/01/27 04:10:08;;;;;;;32.97;23.13;;;;;;;;;;5131965;28;20199;-62
2021/01/27 04:12:34;;;;;;;32.67;23.35;;;;;;;;;;5131986;27;20202;-61
2021/01/27 04:15:01;;;;;;;32.72;23.02;;;;;;;;;;5131932;27;20238;-61
2021/01/27 04:17:29;;;;;;;31.63;21.48;;;;;;;;;;5156333;22;20670;-57
2021/01/27 04:19:56;;;;;;;27.55;20.13;;;;;;;;;;5110545;28;20219;-57
2021/01/27 04:22:23;;;;;;;29.98;21.50;;;;;;;;;;5110762;28;20251;-57
2021/01/27 04:24:50;;;;;;;29.90;20.27;;;;;;;;;;5110533;28;20204;-56
2021/01/27 04:27:17;;;;;;;34.50;23.15;;;;;;;;;;5110462;28;20280;-57
2021/01/27 04:29:44;;;;;;;28.95;21.05;;;;;;;;;;5110615;28;20219;-56
2021/01/27 04:32:11;;;;;;;27.95;20.48;;;;;;;;;;5111335;28;20200;-56
2021/01/27 04:34:37;;;;;;;33.75;20.30;;;;;;;;;;5110465;28;20204;-57
2021/01/27 04:37:04;;;;;;;31.05;20.48;;;;;;;;;;5110519;28;20223;-56
2021/01/27 04:39:31;;;;;;;27.42;20.02;;;;;;;;;;5110338;28;20224;-55
2021/01/27 04:41:59;;;;;;;28.92;21.17;;;;;;;;;;5110020;28;20208;-57
2021/01/27 04:44:26;;;;;;;25.17;20.08;;;;;;;;;;5110283;28;20211;-57
2021/01/27 04:47:03;;;;;;;25.63;17.92;;;;;;;;;;5110071;28;20216;-57
2021/01/27 04:49:33;;;;;;;27.80;19.98;;;;;;;;;;5110067;28;20224;-57
2021/01/27 04:52:03;;;;;;;29.48;19.83;;;;;;;;;;5110085;28;20303;-55
2021/01/27 04:54:37;;;;;;;29.40;20.25;;;;;;;;;;5110051;28;20554;-56
2021/01/27 04:57:24;;;;;;;26.75;19.75;;;;;;;;;;5109971;28;20263;-56
2021/01/27 05:00:01;;;;;;;25.55;18.50;;;;;;;;;;5083856;28;20199;-56
2021/01/27 05:02:38;;;;;;;25.98;19.13;;;;;;;;;;5109452;28;20640;-56
2021/01/27 05:05:08;;;;;;;26.20;19.65;;;;;;;;;;5110103;28;20608;-56
2021/01/27 05:07:50;;;;;;;29.52;19.38;;;;;;;;;;5109314;28;20226;-57
2021/01/27 05:10:20;;;;;;;26.63;18.30;;;;;;;;;;5110003;28;20184;-56
2021/01/27 05:12:50;;;;;;;24.02;17.35;;;;;;;;;;5109783;28;20199;-56
2021/01/27 05:15:18;;;;;;;22.15;17.60;;;;;;;;;;5110003;28;20289;-56
2021/01/27 05:17:46;;;;;;;24.08;17.58;;;;;;;;;;5102581;28;20232;-56
2021/01/27 05:20:13;;;;;;;24.77;17.17;;;;;;;;;;5095705;28;20586;-56
2021/01/27 05:22:40;;;;;;;24.50;17.65;;;;;;;;;;5095512;28;20683;-56
2021/01/27 05:25:10;;;;;;;21.35;16.17;;;;;;;;;;5095590;28;20273;-56
2021/01/27 05:27:37;;;;;;;24.95;16.45;;;;;;;;;;5095746;28;20269;-56
2021/01/27 05:30:05;;;;;;;24.75;18.05;;;;;;;;;;5095812;28;20223;-56
2021/01/27 05:32:48;;;;;;;22.85;17.48;;;;;;;;;;5095766;28;20257;-56
2021/01/27 05:35:23;;;;;;;22.08;17.40;;;;;;;;;;5096303;28;20196;-56
2021/01/27 05:37:50;;;;;;;27.50;17.80;;;;;;;;;;5095889;28;20219;-57
2021/01/27 05:40:19;;;;;;;25.13;15.82;;;;;;;;;;5096178;28;20564;-56
2021/01/27 05:42:46;;;;;;;22.52;15.50;;;;;;;;;;5095827;28;20707;-56
2021/01/27 05:45:37;;;;;;;23.20;16.30;;;;;;;;;;5095648;28;20200;-56
2021/01/27 05:48:21;;;;;;;26.05;17.60;;;;;;;;;;5080475;28;20307;-56
2021/01/27 05:50:50;;;;;;;25.42;15.43;;;;;;;;;;5085332;28;20691;-54
2021/01/27 05:53:17;;;;;;;22.45;15.98;;;;;;;;;;5095614;28;20210;-56
2021/01/27 05:56:02;;;;;;;19.48;16.08;;;;;;;;;;5095484;28;20193;-56
2021/01/27 05:58:30;;;;;;;23.33;16.95;;;;;;;;;;5095550;28;20250;-56
2021/01/27 06:01:12;;;;;;;19.52;14.75;;;;;;;;;;5096124;28;20208;-57
2021/01/27 06:03:39;;;;;;;23.17;15.82;;;;;;;;;;5095270;28;20180;-55
2021/01/27 06:06:10;;;;;;;22.77;16.73;;;;;;;;;;5094684;28;20627;-55
2021/01/27 06:08:46;;;;;;;20.13;14.77;;;;;;;;;;5094861;28;20236;-55
2021/01/27 06:11:14;;;;;;;28.40;17.10;;;;;;;;;;5094545;28;20184;-56
2021/01/27 06:13:40;;;;;;;21.05;15.63;;;;;;;;;;5095430;28;20207;-57
2021/01/27 06:16:16;;;;;;;25.10;16.05;;;;;;;;;;5095835;28;20562;-55
2021/01/27 06:18:43;;;;;;;22.63;16.08;;;;;;;;;;5094491;28;20734;-56
2021/01/27 06:21:28;;;;;;;22.42;16.05;;;;;;;;;;5094448;28;20201;-56
2021/01/27 06:24:02;;;;;;;20.00;15.55;;;;;;;;;;5094455;28;20257;-56
2021/01/27 06:26:39;;;;;;;20.75;15.98;;;;;;;;;;5094823;28;20203;-56
2021/01/27 06:29:21;;;;;;;20.65;15.35;;;;;;;;;;5093268;28;20224;-56
2021/01/27 06:31:55;;;;;;;24.67;16.40;;;;;;;;;;5061029;28;20640;-56
2021/01/27 06:34:31;;;;;;;20.52;15.45;;;;;;;;;;5095027;28;20246;-56
2021/01/27 06:37:02;;;;;;;20.25;14.85;;;;;;;;;;5094711;28;20180;-56
2021/01/27 06:39:44;;;;;;;19.67;14.50;;;;;;;;;;5094267;28;20225;-56
2021/01/27 06:42:19;;;;;;;21.45;15.07;;;;;;;;;;5081650;28;20585;-57
2021/01/27 06:44:53;;;;;;;23.77;16.02;;;;;;;;;;5093652;28;20191;-56
2021/01/27 06:47:24;;;;;;;21.50;13.15;;;;;;;;;;5093712;28;20211;-56
2021/01/27 06:50:02;;;;;;;21.15;13.80;;;;;;;;;;5093784;28;20185;-56
2021/01/27 06:52:44;;;;;;;18.58;13.80;;;;;;;;;;5094158;28;20233;-57
2021/01/27 06:55:19;;;;;;;20.40;13.82;;;;;;;;;;5094011;28;20188;-57
2021/01/27 06:57:58;;;;;;;17.33;12.93;;;;;;;;;;5093842;28;20231;-56
2021/01/27 07:00:31;;;;;;;18.73;13.40;;;;;;;;;;5094025;28;20185;-57
2021/01/27 07:03:22;;;;;;;15.43;12.00;;;;;;;;;;5093927;28;20200;-55
2021/01/27 07:05:55;;;;;;;17.00;12.07;;;;;;;;;;5093800;28;20204;-56
2021/01/27 07:08:28;;;;;;;15.25;11.55;;;;;;;;;;5093764;28;20324;-55
2021/01/27 07:10:57;;;;;;;15.20;11.93;;;;;;;;;;5093751;28;20189;-56
2021/01/27 07:13:37;;;;;;;15.35;11.57;;;;;;;;;;5093732;28;20258;-55
2021/01/27 07:16:05;;;;;;;16.73;11.05;;;;;;;;;;5093595;28;20184;-57
2021/01/27 07:18:51;;;;;;;17.90;12.13;;;;;;;;;;5093509;28;20231;-56
2021/01/27 07:21:22;;;;;;;16.35;10.90;;;;;;;;;;5093198;28;20265;-57
2021/01/27 07:23:50;;;;;;;17.48;10.80;;;;;;;;;;5093607;28;20191;-57
2021/01/27 07:26:21;;;;;;;15.88;10.20;;;;;;;;;;5093375;28;20221;-56
2021/01/27 07:28:53;;;;;;;13.68;10.70;;;;;;;;;;5093297;28;20353;-57
2021/01/27 07:31:22;;;;;;;12.98;10.32;;;;;;;;;;5093135;28;20233;-56
2021/01/27 07:33:51;;;;;;;13.43;9.93;;;;;;;;;;5093324;28;20196;-58
2021/01/27 07:36:26;;;;;;;14.25;10.27;;;;;;;;;;5093281;28;20281;-56
2021/01/27 07:38:55;;;;;;;16.63;10.60;;;;;;;;;;5092838;28;20276;-57
2021/01/27 07:41:24;;;;;;;20.42;11.25;;;;;;;;;;5092875;28;20239;-56
2021/01/27 07:43:54;;;;;;;16.42;10.23;;;;;;;;;;5093375;28;20211;-56
2021/01/27 07:46:27;;;;;;;18.63;10.57;;;;;;;;;;5092563;28;20234;-57
2021/01/27 07:48:58;;;;;;;11.32;9.23;;;;;;;;;;5092997;28;20636;-57
2021/01/27 07:51:27;;;;;;;14.13;11.25;;;;;;;;;;5092662;28;20230;-57
2021/01/27 07:53:59;;;;;;;14.45;10.15;;;;;;;;;;5092873;28;20227;-57
2021/01/27 07:56:28;;;;;;;14.32;9.70;;;;;;;;;;5092574;28;20188;-57
2021/01/27 07:58:59;;;;;;;12.80;9.90;;;;;;;;;;5093295;28;20220;-57
2021/01/27 08:01:28;;;;;;;12.88;9.68;;;;;;;;;;5092854;28;20189;-57
2021/01/27 08:03:58;;;;;;;13.00;10.35;;;;;;;;;;5092855;28;20203;-57
2021/01/27 08:06:26;;;;;;;14.40;10.45;;;;;;;;;;5093543;28;20631;-58
2021/01/27 08:08:54;;;;;;;13.02;10.50;;;;;;;;;;5092665;28;20279;-56
2021/01/27 08:11:22;;;;;;;13.73;10.75;;;;;;;;;;5093228;28;20209;-56
2021/01/27 08:13:50;;;;;;;16.40;12.23;;;;;;;;;;5092531;28;20291;-56
2021/01/27 08:16:32;;;;;;;15.50;12.00;;;;;;;;;;5092983;28;20204;-58
2021/01/27 08:19:17;;;;;;;14.98;11.48;;;;;;;;;;5092438;28;20238;-56
2021/01/27 08:21:52;;;;;;;12.65;9.65;;;;;;;;;;5093096;28;20279;-56
2021/01/27 08:24:37;;;;;;;12.27;10.50;;;;;;;;;;5093057;28;20564;-56
2021/01/27 08:27:17;;;;;;;13.30;9.82;;;;;;;;;;5092817;28;20769;-57
2021/01/27 08:30:07;;;;;;;14.15;11.00;;;;;;;;;;5092509;28;20303;-57
2021/01/27 08:32:35;;;;;;;16.48;10.32;;;;;;;;;;5093132;28;20192;-57
2021/01/27 08:35:04;;;;;;;16.27;10.35;;;;;;;;;;5093213;28;20207;-58
2021/01/27 08:37:31;;;;;;;11.85;9.38;;;;;;;;;;5092572;28;20199;-59
2021/01/27 08:40:05;;;;;;;11.13;9.27;;;;;;;;;;5092215;28;20207;-56
2021/01/27 08:42:36;;;;;;;9.82;8.77;;;;;;;;;;5092340;28;20206;-57
2021/01/27 08:45:09;;;;;;;12.00;9.82;;;;;;;;;;5092638;28;20188;-58
2021/01/27 08:47:38;;;;;;;13.50;9.52;;;;;;;;;;5092351;28;20208;-57
2021/01/27 08:50:06;;;;;;;12.43;9.40;;;;;;;;;;5092379;28;20200;-57
2021/01/27 08:52:35;;;;;;;11.88;10.63;;;;;;;;;;5093135;28;20196;-57
2021/01/27 08:55:02;;;;;;;12.27;9.20;;;;;;;;;;5096221;28;20574;-58
2021/01/27 08:57:30;;;;;;;11.93;9.15;;;;;;;;;;5096566;28;20219;-59
2021/01/27 09:00:08;;;;;;;11.82;9.82;;;;;;;;;;5096594;28;20204;-57
2021/01/27 09:02:44;;;;;;;12.85;9.68;;;;;;;;;;5096321;28;20188;-56
2021/01/27 09:05:18;;;;;;;13.77;9.77;;;;;;;;;;5096246;28;20188;-56
2021/01/27 09:07:47;;;;;;;12.55;9.73;;;;;;;;;;5095842;28;20784;-57
2021/01/27 09:10:14;;;;;;;11.55;9.70;;;;;;;;;;5096008;28;20573;-58
2021/01/27 09:12:41;;;;;;;12.60;9.23;;;;;;;;;;5095394;28;20219;-57
2021/01/27 09:15:08;;;;;;;12.45;8.63;;;;;;;;;;5095837;28;20254;-57
2021/01/27 09:17:35;;;;;;;12.30;9.27;;;;;;;;;;5095445;28;20205;-57
2021/01/27 09:20:03;;;;;;;13.40;10.05;;;;;;;;;;5096213;28;20560;-57
2021/01/27 09:22:33;;;;;;;11.23;9.07;;;;;;;;;;5095943;28;20254;-57
2021/01/27 09:25:00;;;;;;;10.70;9.35;;;;;;;;;;5095785;28;20249;-57
2021/01/27 09:27:27;;;;;;;12.43;9.77;;;;;;;;;;5095487;28;20617;-57
2021/01/27 09:29:55;;;;;;;12.43;10.63;;;;;;;;;;5095760;28;20258;-56
2021/01/27 09:32:22;;;;;;;12.90;9.50;;;;;;;;;;5095878;28;20258;-56
2021/01/27 09:34:50;;;;;;;13.07;9.65;;;;;;;;;;5095596;28;20257;-58
2021/01/27 09:37:18;;;;;;;10.73;8.10;;;;;;;;;;5095225;28;20208;-57
2021/01/27 09:39:48;;;;;;;12.60;10.05;;;;;;;;;;5095372;28;20304;-57
2021/01/27 09:42:18;;;;;;;11.60;8.90;;;;;;;;;;5095223;28;20200;-57
2021/01/27 09:44:46;;;;;;;12.25;9.73;;;;;;;;;;5095436;28;20208;-57
2021/01/27 09:47:14;;;;;;;11.15;9.93;;;;;;;;;;5095415;28;20234;-57
2021/01/27 09:49:43;;;;;;;10.75;8.45;;;;;;;;;;5095046;28;20302;-58
2021/01/27 09:52:11;;;;;;;11.38;8.77;;;;;;;;;;5095025;28;20226;-57
2021/01/27 09:54:40;;;;;;;9.98;8.95;;;;;;;;;;5095146;28;20196;-57
2021/01/27 09:57:09;;;;;;;13.43;9.88;;;;;;;;;;5095258;28;20308;-56
2021/01/27 09:59:36;;;;;;;11.93;8.57;;;;;;;;;;5094982;28;20342;-56
2021/01/27 10:02:04;;;;;;;9.65;8.63;;;;;;;;;;5095665;28;20201;-57
2021/01/27 10:04:32;;;;;;;10.10;9.13;;;;;;;;;;5094982;28;20196;-56
2021/01/27 10:07:06;;;;;;;8.98;8.07;;;;;;;;;;5095183;28;20212;-57
2021/01/27 10:09:39;;;;;;;14.18;10.07;;;;;;;;;;5094824;28;20235;-57
2021/01/27 10:12:10;;;;;;;10.68;9.55;;;;;;;;;;5094638;28;20189;-57
2021/01/27 10:14:38;;;;;;;9.45;8.57;;;;;;;;;;5094843;28;20188;-57
2021/01/27 10:17:06;;;;;;;10.27;8.85;;;;;;;;;;5094512;28;20201;-57
2021/01/27 10:19:34;;;;;;;8.63;7.60;;;;;;;;;;5119199;22;20224;-64
2021/01/27 10:22:02;;;;;;;10.07;7.70;;;;;;;;;;5096409;28;20200;-64
2021/01/27 10:24:47;;;;;;;9.82;8.82;;;;;;;;;;5095468;28;20211;-64
2021/01/27 10:27:20;;;;;;;9.95;8.75;;;;;;;;;;5095117;28;20718;-63
2021/01/27 10:29:46;;;;;;;10.23;8.80;;;;;;;;;;5095406;28;20227;-62
2021/01/27 10:32:20;;;;;;;9.40;8.45;;;;;;;;;;5096493;28;20209;-63
2021/01/27 10:34:48;;;;;;;14.85;8.55;;;;;;;;;;5095135;28;20640;-63
2021/01/27 10:37:26;;;;;;;11.32;7.85;;;;;;;;;;5094951;28;20197;-62
2021/01/27 10:40:10;;;;;;;9.80;8.20;;;;;;;;;;5095888;28;20296;-63
2021/01/27 10:42:38;;;;;;;11.95;9.25;;;;;;;;;;5096500;28;20204;-64
2021/01/27 10:45:21;;;;;;;13.93;8.65;;;;;;;;;;5097263;28;20196;-64
2021/01/27 10:47:56;;;;;;;9.60;7.70;;;;;;;;;;5096250;28;20254;-64
2021/01/27 10:50:22;;;;;;;9.07;6.40;;;;;;;;;;5096705;28;20199;-64
2021/01/27 10:52:50;;;;;;;7.72;6.93;;;;;;;;;;5103438;28;20269;-63
2021/01/27 10:55:17;;;;;;;8.50;6.95;;;;;;;;;;5095379;28;20249;-63
2021/01/27 10:57:45;;;;;;;7.30;6.60;;;;;;;;;;5096722;28;20249;-63
2021/01/27 11:00:14;;;;;;;7.53;6.75;;;;;;;;;;5095795;28;20253;-64
2021/01/27 11:02:41;;;;;;;8.35;6.72;;;;;;;;;;5098245;28;20200;-64
2021/01/27 11:05:08;;;;;;;7.93;7.10;;;;;;;;;;5099971;28;20196;-63
2021/01/27 11:07:35;;;;;;;7.00;6.35;;;;;;;;;;5099002;28;20224;-63
2021/01/27 11:10:01;;;;;;;7.75;6.55;;;;;;;;;;5097321;28;20273;-63
2021/01/27 11:12:28;;;;;;;8.55;7.45;;;;;;;;;;5098488;28;20246;-62
2021/01/27 11:14:56;;;;;;;7.20;6.50;;;;;;;;;;5096693;28;20203;-64
2021/01/27 11:17:23;;;;;;;8.40;6.97;;;;;;;;;;5097230;28;20232;-63
2021/01/27 11:19:49;;;;;;;8.60;7.70;;;;;;;;;;5095714;28;20644;-64
2021/01/27 11:22:16;;;;;;;7.78;7.07;;;;;;;;;;5094826;28;20200;-63
2021/01/27 11:24:43;;;;;;;7.38;6.70;;;;;;;;;;5094905;28;20197;-62
2021/01/27 11:27:09;;;;;;;7.13;6.10;;;;;;;;;;5094854;28;20228;-65
2021/01/27 11:29:36;;;;;;;9.35;7.60;;;;;;;;;;5094093;28;20759;-62
2021/01/27 11:32:04;;;;;;;6.40;5.80;;;;;;;;;;5094620;28;20196;-62
2021/01/27 11:34:31;;;;;;;8.75;6.88;;;;;;;;;;5095292;28;20204;-61
2021/01/27 11:36:58;;;;;;;9.05;6.80;;;;;;;;;;5095389;28;20206;-63
2021/01/27 11:39:24;;;;;;;6.65;5.72;;;;;;;;;;5095118;28;20220;-63
2021/01/27 11:41:51;;;;;;;7.13;6.43;;;;;;;;;;5095123;28;20568;-64
2021/01/27 11:44:18;;;;;;;7.88;6.72;;;;;;;;;;5096187;28;20223;-62
2021/01/27 11:46:46;;;;;;;8.68;7.57;;;;;;;;;;5094668;28;20593;-62
2021/01/27 11:49:13;;;;;;;7.00;6.30;;;;;;;;;;5095141;28;20588;-62
2021/01/27 11:51:40;;;;;;;7.78;6.75;;;;;;;;;;5095528;28;20208;-63
2021/01/27 11:54:07;;;;;;;7.75;7.00;;;;;;;;;;5095120;28;20574;-61
2021/01/27 11:56:34;;;;;;;7.22;6.53;;;;;;;;;;5095607;28;20573;-62
2021/01/27 11:59:01;;;;;;;10.50;7.38;;;;;;;;;;5094515;28;20220;-62
2021/01/27 12:01:28;;;;;;;7.47;6.72;;;;;;;;;;5095606;28;20211;-61
2021/01/27 12:03:55;;;;;;;7.60;6.80;;;;;;;;;;5100132;28;20680;-62
2021/01/27 12:06:22;;;;;;;11.57;8.70;;;;;;;;;;5097424;28;20696;-62
2021/01/27 12:08:49;;;;;;;9.82;7.13;;;;;;;;;;5095496;28;20224;-62
2021/01/27 12:11:16;;;;;;;8.88;6.50;;;;;;;;;;5096741;28;20208;-62
2021/01/27 12:13:43;;;;;;;8.10;6.60;;;;;;;;;;5096165;28;20253;-62
2021/01/27 12:16:10;;;;;;;9.85;7.47;;;;;;;;;;5094344;28;20197;-61
2021/01/27 12:18:36;;;;;;;7.18;6.47;;;;;;;;;;5095576;28;20244;-61
2021/01/27 12:21:03;;;;;;;6.97;6.15;;;;;;;;;;5094450;28;20211;-62
2021/01/27 12:23:31;;;;;;;7.65;5.93;;;;;;;;;;5095035;28;20200;-64
2021/01/27 12:25:58;;;;;;;6.53;5.28;;;;;;;;;;5095531;28;20200;-63
2021/01/27 12:28:25;;;;;;;7.60;5.30;;;;;;;;;;5097265;28;20216;-64
2021/01/27 12:30:52;;;;;;;7.22;5.35;;;;;;;;;;5098225;28;20740;-64
2021/01/27 12:33:19;;;;;;;8.90;6.93;;;;;;;;;;5099319;28;20682;-64
2021/01/27 12:35:45;;;;;;;7.85;6.82;;;;;;;;;;5098867;28;20563;-64
2021/01/27 12:38:12;;;;;;;7.85;7.05;;;;;;;;;;5098411;28;20563;-63
2021/01/27 12:40:40;;;;;;;7.63;6.93;;;;;;;;;;5100382;28;20204;-64
2021/01/27 12:43:06;;;;;;;10.48;6.70;;;;;;;;;;5098520;28;20211;-62
2021/01/27 12:45:33;;;;;;;10.10;6.57;;;;;;;;;;5098619;28;20204;-62
2021/01/27 12:48:00;;;;;;;7.90;5.25;;;;;;;;;;5099062;28;20220;-62
2021/01/27 12:50:27;;;;;;;8.95;6.28;;;;;;;;;;5100332;28;20205;-63
2021/01/27 12:52:54;;;;;;;7.47;6.38;;;;;;;;;;5097873;28;20219;-64
2021/01/27 12:55:21;;;;;;;7.95;5.75;;;;;;;;;;5097459;28;20291;-62
2021/01/27 12:57:49;;;;;;;6.80;6.10;;;;;;;;;;5097519;28;20240;-64
2021/01/27 13:00:19;;;;;;;6.07;5.47;;;;;;;;;;5097259;28;20573;-62
2021/01/27 13:02:46;;;;;;;6.47;5.70;;;;;;;;;;5097496;28;20613;-63
2021/01/27 13:05:13;;;;;;;6.95;5.65;;;;;;;;;;5096960;28;20253;-63
2021/01/27 13:07:40;;;;;;;7.18;6.00;;;;;;;;;;5096556;28;20227;-62
2021/01/27 13:10:08;;;;;;;11.45;5.35;;;;;;;;;;5096528;28;20216;-62
2021/01/27 13:12:35;;;;;;;6.03;5.30;;;;;;;;;;5096854;28;20239;-62
2021/01/27 13:15:04;;;;;;;5.30;4.30;;;;;;;;;;5097345;28;20203;-62
2021/01/27 13:17:30;;;;;;;4.38;3.95;;;;;;;;;;5097174;28;20204;-62
2021/01/27 13:19:57;;;;;;;7.00;6.38;;;;;;;;;;5096789;28;20268;-61
2021/01/27 13:22:24;;;;;;;5.80;5.20;;;;;;;;;;5102642;28;20573;-62
2021/01/27 13:24:51;;;;;;;7.95;5.38;;;;;;;;;;5099250;28;20612;-62
2021/01/27 13:27:18;;;;;;;6.72;5.18;;;;;;;;;;5096868;28;20593;-62
2021/01/27 13:29:44;;;;;;;7.88;5.15;;;;;;;;;;5096092;28;20228;-63
2021/01/27 13:32:12;;;;;;;7.85;7.25;;;;;;;;;;5096440;28;20196;-63
2021/01/27 13:34:39;;;;;;;5.70;5.20;;;;;;;;;;5095992;28;20558;-63
2021/01/27 13:37:05;;;;;;;5.78;5.15;;;;;;;;;;5096240;28;20565;-62
2021/01/27 13:39:32;;;;;;;5.50;4.85;;;;;;;;;;5097383;28;20224;-62
2021/01/27 13:41:59;;;;;;;5.30;4.90;;;;;;;;;;5098568;28;20203;-63
2021/01/27 13:44:26;;;;;;;5.65;5.15;;;;;;;;;;5097465;28;20204;-62
2021/01/27 13:46:53;;;;;;;6.85;5.93;;;;;;;;;;5097032;28;20216;-62
2021/01/27 13:49:20;;;;;;;5.30;4.80;;;;;;;;;;5096561;28;20224;-62
2021/01/27 13:51:47;;;;;;;8.90;5.93;;;;;;;;;;5096361;28;20201;-62
2021/01/27 13:54:14;;;;;;;5.75;5.18;;;;;;;;;;5096533;28;20201;-62
2021/01/27 13:56:42;;;;;;;5.18;4.55;;;;;;;;;;5097275;28;20196;-61
2021/01/27 13:59:09;;;;;;;9.57;6.80;;;;;;;;;;5097219;28;20223;-61
2021/01/27 14:01:36;;;;;;;6.13;5.53;;;;;;;;;;5095603;28;20223;-62
2021/01/27 14:04:03;;;;;;;5.15;4.65;;;;;;;;;;5095457;28;20652;-63
2021/01/27 14:06:32;;;;;;;6.45;5.85;;;;;;;;;;5095495;28;20227;-63
2021/01/27 14:08:59;;;;;;;7.72;6.50;;;;;;;;;;5095337;28;20265;-62
2021/01/27 14:11:25;;;;;;;7.50;6.80;;;;;;;;;;5095378;28;20218;-62
2021/01/27 14:13:52;;;;;;;5.75;5.35;;;;;;;;;;5095541;28;20197;-62
2021/01/27 14:16:19;;;;;;;6.63;5.60;;;;;;;;;;5095797;28;20200;-63
2021/01/27 14:18:47;;;;;;;6.40;5.80;;;;;;;;;;5095453;28;20234;-63
2021/01/27 14:21:14;;;;;;;6.28;5.78;;;;;;;;;;5095457;28;20691;-62
2021/01/27 14:23:41;;;;;;;7.68;6.82;;;;;;;;;;5095462;28;20196;-62
2021/01/27 14:26:08;;;;;;;6.55;5.95;;;;;;;;;;5095564;28;20207;-62
2021/01/27 14:28:35;;;;;;;8.68;5.75;;;;;;;;;;5094815;28;20225;-63
2021/01/27 14:31:03;;;;;;;6.68;5.80;;;;;;;;;;5094969;28;20203;-63
2021/01/27 14:33:30;;;;;;;5.82;5.32;;;;;;;;;;5094631;28;20211;-62
2021/01/27 14:35:57;;;;;;;6.45;5.85;;;;;;;;;;5094711;28;20200;-64
2021/01/27 14:38:24;;;;;;;6.38;5.25;;;;;;;;;;5094828;28;20212;-63
2021/01/27 14:40:51;;;;;;;7.20;6.50;;;;;;;;;;5095438;28;20196;-63
2021/01/27 14:43:18;;;;;;;6.45;5.80;;;;;;;;;;5095197;28;20200;-65